Time;durP1;ratioP1;P1;durP2;ratioP2;P2;SDS_P1;SDS_P2;PMS_P1;PMS_P2;Temp;Humidity;BMP_temperature;BMP_pressure;BME280_temperature;BME280_humidity;BME280_pressure;Samples;Min_cycle;Max_cycle;Signal;HPM_P1;HPM_P2
2023/10/11 00:02:57;;;;;;;1999.90;999.90;;;10.60;99.90;;;;;;5071592;28;20499;-75
2023/10/11 00:05:24;;;;;;;1999.90;999.90;;;10.60;99.90;;;;;;5074698;28;20474;-75
2023/10/11 00:07:54;;;;;;;1999.90;999.90;;;10.60;99.90;;;;;;5074040;28;20041;-75
2023/10/11 00:10:22;;;;;;;1999.90;999.90;;;10.60;99.90;;;;;;5056521;28;20041;-75
2023/10/11 00:12:50;;;;;;;1999.90;999.90;;;10.70;99.90;;;;;;5074570;28;20094;-75
2023/10/11 00:15:16;;;;;;;1999.90;999.90;;;10.70;99.90;;;;;;5056250;28;20047;-73
2023/10/11 00:17:45;;;;;;;1999.90;999.90;;;10.70;99.90;;;;;;5055612;28;20033;-75
2023/10/11 00:22:56;;;;;;;1999.90;999.90;;;10.80;99.90;;;;;;5073058;28;20033;-75
2023/10/11 00:25:25;;;;;;;1999.90;999.90;;;10.80;99.90;;;;;;5074710;28;20032;-74
2023/10/11 00:27:58;;;;;;;1999.90;999.90;;;10.90;99.90;;;;;;5073724;28;20033;-75
2023/10/11 00:30:30;;;;;;;1999.90;999.90;;;10.90;99.90;;;;;;5056192;28;20483;-75
2023/10/11 00:32:56;;;;;;;1999.90;999.90;;;10.90;99.90;;;;;;5074213;28;20041;-75
2023/10/11 00:35:26;;;;;;;1999.90;999.90;;;11.00;99.90;;;;;;5074085;28;20405;-75
2023/10/11 00:37:53;;;;;;;1999.90;999.90;;;11.00;99.90;;;;;;5073802;28;20033;-75
2023/10/11 00:40:26;;;;;;;1999.90;999.90;;;11.10;99.90;;;;;;5074208;28;20040;-75
2023/10/11 00:42:52;;;;;;;1999.90;999.90;;;11.10;99.90;;;;;;5074420;28;20025;-75
2023/10/11 00:45:22;;;;;;;1999.90;999.90;;;11.10;99.90;;;;;;5073922;28;20037;-75
2023/10/11 00:47:52;;;;;;;1999.90;999.90;;;11.10;99.90;;;;;;5073344;28;20032;-75
2023/10/11 00:50:21;;;;;;;1999.90;999.90;;;11.10;99.90;;;;;;5074374;28;20037;-75
2023/10/11 00:52:47;;;;;;;1999.90;999.90;;;11.10;99.90;;;;;;5073826;28;20040;-75
2023/10/11 00:55:21;;;;;;;1999.90;999.90;;;11.10;99.90;;;;;;5073926;28;20060;-75
2023/10/11 00:57:49;;;;;;;1999.90;999.90;;;11.20;99.90;;;;;;5073270;28;20037;-75
2023/10/11 01:00:21;;;;;;;1999.90;999.90;;;11.10;99.90;;;;;;5076656;28;20032;-75
2023/10/11 01:02:48;;;;;;;1999.90;999.90;;;11.10;99.90;;;;;;5077366;28;20037;-74
2023/10/11 01:05:19;;;;;;;1999.90;999.90;;;11.10;99.90;;;;;;5077198;28;20040;-75
2023/10/11 01:07:46;;;;;;;1999.90;999.90;;;11.10;99.90;;;;;;5076793;28;20041;-74
2023/10/11 01:10:12;;;;;;;1999.90;999.90;;;11.00;99.90;;;;;;5077363;28;20124;-75
2023/10/11 01:12:41;;;;;;;1999.90;999.90;;;11.00;99.90;;;;;;5077214;28;20044;-75
2023/10/11 01:15:11;;;;;;;1999.90;999.90;;;11.00;99.90;;;;;;5077108;28;20056;-75
2023/10/11 01:17:38;;;;;;;1999.90;999.90;;;10.90;99.90;;;;;;5077023;28;20041;-75
2023/10/11 01:20:13;;;;;;;1999.90;999.90;;;10.90;99.90;;;;;;5077334;28;20405;-75
2023/10/11 01:22:42;;;;;;;1999.90;999.90;;;10.90;99.90;;;;;;5077254;28;20021;-75
2023/10/11 01:25:08;;;;;;;1999.90;999.90;;;10.80;99.90;;;;;;5076868;28;20037;-74
2023/10/11 01:27:36;;;;;;;1999.90;999.90;;;10.80;99.90;;;;;;5076771;28;20530;-74
2023/10/11 01:30:07;;;;;;;1999.90;999.90;;;10.80;99.90;;;;;;5077059;28;20826;-75
2023/10/11 01:32:34;;;;;;;1999.90;999.90;;;10.70;99.90;;;;;;5058774;28;20029;-75
2023/10/11 01:35:01;;;;;;;1999.90;999.90;;;10.60;99.90;;;;;;5077044;28;20029;-71
2023/10/11 01:37:28;;;;;;;1999.90;999.90;;;10.50;99.90;;;;;;5076422;28;20037;-71
2023/10/11 01:39:53;;;;;;;1999.90;999.90;;;10.50;99.90;;;;;;5077083;28;20029;-72
2023/10/11 01:42:19;;;;;;;1999.90;999.90;;;10.40;99.90;;;;;;5077146;28;20036;-71
2023/10/11 01:44:44;;;;;;;1999.90;999.90;;;10.40;99.90;;;;;;5076958;28;20130;-71
2023/10/11 01:47:10;;;;;;;1999.90;999.90;;;10.30;99.90;;;;;;5058418;28;20069;-72
2023/10/11 01:49:39;;;;;;;1999.90;999.90;;;10.30;99.90;;;;;;5076610;28;20037;-71
2023/10/11 01:52:06;;;;;;;1999.90;999.90;;;10.20;99.90;;;;;;5058138;28;20040;-71
2023/10/11 01:54:34;;;;;;;1999.90;999.90;;;10.20;99.90;;;;;;5058490;28;20025;-71
2023/10/11 01:57:01;;;;;;;1999.90;999.90;;;10.20;99.90;;;;;;5075792;28;20127;-72
2023/10/11 01:59:27;;;;;;;1999.90;999.90;;;10.20;99.90;;;;;;5076211;28;20040;-72
2023/10/11 02:02:02;;;;;;;1999.90;999.90;;;10.10;99.90;;;;;;5076341;28;20505;-74
2023/10/11 02:04:31;;;;;;;1999.90;999.90;;;10.20;99.90;;;;;;5076806;28;20032;-72
2023/10/11 02:06:57;;;;;;;1999.90;999.90;;;10.20;99.90;;;;;;5076238;28;20036;-74
2023/10/11 02:09:23;;;;;;;1999.90;999.90;;;10.30;99.90;;;;;;5076391;28;20037;-72
2023/10/11 02:11:54;;;;;;;1999.90;999.90;;;10.30;99.90;;;;;;5057628;28;20040;-72
2023/10/11 02:14:21;;;;;;;1999.90;999.90;;;10.40;99.90;;;;;;5076688;28;20542;-72
2023/10/11 02:16:46;;;;;;;1999.90;999.90;;;10.40;99.90;;;;;;5057510;28;20048;-71
2023/10/11 02:19:15;;;;;;;1999.90;999.90;;;10.40;99.90;;;;;;5076256;28;20033;-72
2023/10/11 02:21:44;;;;;;;1999.90;999.90;;;10.50;99.90;;;;;;5076303;28;20507;-72
2023/10/11 02:24:14;;;;;;;1999.90;999.90;;;10.50;99.90;;;;;;5076335;28;20032;-72
2023/10/11 02:26:41;;;;;;;1999.90;999.90;;;10.50;99.90;;;;;;5076255;28;20036;-72
2023/10/11 02:29:15;;;;;;;1999.90;999.90;;;10.70;99.90;;;;;;5075832;28;20083;-73
2023/10/11 02:31:41;;;;;;;1999.90;999.90;;;10.60;99.90;;;;;;5057897;28;20830;-71
2023/10/11 02:34:15;;;;;;;1999.90;999.90;;;10.60;99.90;;;;;;5076201;28;20079;-71
2023/10/11 02:36:42;;;;;;;1999.90;999.90;;;10.70;99.90;;;;;;5075952;28;20095;-71
2023/10/11 02:39:17;;;;;;;1999.90;999.90;;;10.70;99.90;;;;;;5075778;28;20368;-71
2023/10/11 02:41:57;;;;;;;1999.90;999.90;;;10.70;99.90;;;;;;5057633;28;20152;-71
2023/10/11 02:44:23;;;;;;;1999.90;999.90;;;10.70;99.90;;;;;;5057526;28;20495;-71
2023/10/11 02:46:49;;;;;;;1999.90;999.90;;;10.70;99.90;;;;;;5057181;28;20044;-71
2023/10/11 02:49:21;;;;;;;1999.90;999.90;;;10.70;99.90;;;;;;5057411;28;20490;-72
2023/10/11 02:51:55;;;;;;;1999.90;999.90;;;10.70;99.90;;;;;;5057506;28;20071;-72
2023/10/11 02:54:24;;;;;;;1999.90;999.90;;;10.70;99.90;;;;;;5076004;28;20513;-72
2023/10/11 02:56:52;;;;;;;1999.90;999.90;;;10.70;99.90;;;;;;5075494;28;20422;-71
2023/10/11 02:59:20;;;;;;;1999.90;999.90;;;10.60;99.90;;;;;;5075383;28;20036;-72
2023/10/11 03:01:59;;;;;;;1999.90;999.90;;;10.60;99.90;;;;;;5057329;28;20040;-72
2023/10/11 03:04:39;;;;;;;1999.90;999.90;;;10.50;99.90;;;;;;5057490;28;20036;-71
2023/10/11 03:07:23;;;;;;;1999.90;999.90;;;10.50;99.90;;;;;;5075469;28;20033;-72
2023/10/11 03:09:49;;;;;;;1999.90;999.90;;;10.50;99.90;;;;;;5075784;28;20029;-71
2023/10/11 03:15:12;;;;;;;1999.90;999.90;;;10.30;99.90;;;;;;5051349;28;20120;-72
2023/10/11 03:17:41;;;;;;;1999.90;999.90;;;10.30;99.90;;;;;;5074893;28;20375;-73
2023/10/11 03:20:24;;;;;;;1999.90;999.90;;;10.30;99.90;;;;;;5075269;28;20119;-72
2023/10/11 03:22:51;;;;;;;1999.90;999.90;;;10.20;99.90;;;;;;5074381;28;20040;-71
2023/10/11 03:25:19;;;;;;;1999.90;999.90;;;10.20;99.90;;;;;;5075364;28;20025;-74
2023/10/11 03:27:49;;;;;;;1999.90;999.90;;;10.00;99.90;;;;;;5056453;28;20495;-73
2023/10/11 03:30:15;;;;;;;1999.90;999.90;;;10.10;99.90;;;;;;5075125;28;20029;-71
2023/10/11 03:32:44;;;;;;;1999.90;999.90;;;10.10;99.90;;;;;;5056840;28;20033;-74
2023/10/11 03:35:10;;;;;;;1999.90;999.90;;;10.00;99.90;;;;;;5075097;28;20418;-74
2023/10/11 03:37:40;;;;;;;1999.90;999.90;;;10.10;99.90;;;;;;5056716;28;20132;-72
2023/10/11 03:40:26;;;;;;;1999.90;999.90;;;10.10;99.90;;;;;;5074967;28;20061;-74
2023/10/11 03:42:59;;;;;;;1999.90;999.90;;;10.10;99.90;;;;;;5074966;28;20029;-74
2023/10/11 03:45:27;;;;;;;1999.90;999.90;;;10.10;99.90;;;;;;5075218;28;20031;-71
2023/10/11 03:47:58;;;;;;;1999.90;999.90;;;10.10;99.90;;;;;;5074686;28;20035;-72
2023/10/11 03:50:33;;;;;;;1999.90;999.90;;;10.10;99.90;;;;;;5075257;28;20036;-71
2023/10/11 03:53:07;;;;;;;1999.90;999.90;;;10.00;99.90;;;;;;5056635;28;20104;-75
2023/10/11 03:55:33;;;;;;;1999.90;999.90;;;10.00;99.90;;;;;;5056590;28;20483;-75
2023/10/11 03:57:58;;;;;;;1999.90;999.90;;;10.00;99.90;;;;;;5083002;22;20039;-75
2023/10/11 04:00:28;;;;;;;1999.90;999.90;;;10.00;99.90;;;;;;5115559;28;20121;-75
2023/10/11 04:02:58;;;;;;;1999.90;999.90;;;9.90;99.90;;;;;;5115447;28;20028;-75
2023/10/11 04:05:34;;;;;;;1999.90;999.90;;;9.80;99.90;;;;;;5115336;27;20024;-75
2023/10/11 04:08:05;;;;;;;1999.90;999.90;;;9.80;99.90;;;;;;5131139;27;20028;-75
2023/10/11 04:10:39;;;;;;;1999.90;999.90;;;9.80;99.90;;;;;;5115059;27;20029;-75
2023/10/11 04:13:09;;;;;;;1999.90;999.90;;;9.70;99.90;;;;;;5113995;28;20029;-75
2023/10/11 04:15:35;;;;;;;1999.90;999.90;;;9.60;99.90;;;;;;5115200;27;20032;-75
2023/10/11 04:18:14;;;;;;;1999.90;999.90;;;9.60;99.90;;;;;;5115433;27;20024;-75
2023/10/11 04:20:40;;;;;;;1999.90;999.90;;;9.60;99.90;;;;;;5114824;28;20071;-74
2023/10/11 04:23:14;;;;;;;1999.90;999.90;;;9.60;99.90;;;;;;5113908;28;20332;-75
2023/10/11 04:25:43;;;;;;;1999.90;999.90;;;9.70;99.90;;;;;;5114979;27;20114;-74
2023/10/11 04:28:12;;;;;;;1999.90;999.90;;;9.70;99.90;;;;;;5114785;27;20051;-76
2023/10/11 04:30:44;;;;;;;1999.90;999.90;;;9.70;99.90;;;;;;5114957;27;20468;-75
2023/10/11 04:33:12;;;;;;;1999.90;999.90;;;9.70;99.90;;;;;;5114961;27;20039;-75
2023/10/11 04:35:42;;;;;;;1999.90;999.90;;;9.70;99.90;;;;;;5117887;27;20035;-75
2023/10/11 04:38:11;;;;;;;1999.90;999.90;;;9.70;99.90;;;;;;5118094;27;20028;-75
2023/10/11 04:40:51;;;;;;;1999.90;999.90;;;9.70;99.90;;;;;;5117241;28;20036;-75
2023/10/11 04:43:20;;;;;;;1999.90;999.90;;;9.80;99.90;;;;;;5117495;28;20515;-75
2023/10/11 04:45:55;;;;;;;1999.90;999.90;;;9.70;99.90;;;;;;5118211;27;20032;-74
2023/10/11 04:48:29;;;;;;;1999.90;999.90;;;9.80;99.90;;;;;;5118779;27;20028;-76
2023/10/11 04:51:07;;;;;;;1999.90;999.90;;;9.80;99.90;;;;;;5116971;28;20534;-76
2023/10/11 04:53:54;;;;;;;1999.90;999.90;;;9.70;99.90;;;;;;5111122;28;20532;-76
2023/10/11 05:02:02;;;;;;;1999.90;999.90;;;9.70;99.90;;;;;;5117659;27;20559;-76
2023/10/11 05:04:32;;;;;;;1999.90;999.90;;;9.70;99.90;;;;;;5117680;28;20036;-76
2023/10/11 05:07:03;;;;;;;1999.90;999.90;;;9.60;99.90;;;;;;5115991;28;20032;-76
2023/10/11 05:09:38;;;;;;;1999.90;999.90;;;9.60;99.90;;;;;;5118394;28;20032;-76
2023/10/11 05:12:09;;;;;;;1999.90;999.90;;;9.60;99.90;;;;;;5117049;27;20378;-76
2023/10/11 05:17:38;;;;;;;1999.90;999.90;;;9.50;99.90;;;;;;5114195;27;20097;-76
2023/10/11 05:28:07;;;;;;;1999.90;999.90;;;9.30;99.90;;;;;;5117583;27;20119;-75
2023/10/11 05:30:37;;;;;;;1999.90;999.90;;;9.20;99.90;;;;;;5117905;27;20063;-76
2023/10/11 05:52:07;;;;;;;1999.90;999.90;;;9.10;99.90;;;;;;5118540;28;20040;-76
2023/10/11 05:54:36;;;;;;;1999.90;999.90;;;9.10;99.90;;;;;;5117173;27;20028;-76
2023/10/11 05:57:03;;;;;;;1999.90;999.90;;;9.10;99.90;;;;;;5116549;27;20032;-76
2023/10/11 05:59:35;;;;;;;1999.90;999.90;;;9.10;99.90;;;;;;5116823;27;20028;-76
2023/10/11 06:02:02;;;;;;;1999.90;999.90;;;9.10;99.90;;;;;;5117385;27;20035;-75
2023/10/11 06:04:30;;;;;;;1999.90;999.90;;;9.10;99.90;;;;;;5117324;27;20488;-76
2023/10/11 06:06:58;;;;;;;1999.90;999.90;;;9.30;99.90;;;;;;5116826;27;20114;-75
2023/10/11 06:09:30;;;;;;;1999.90;999.90;;;9.20;99.90;;;;;;5116809;27;20032;-75
2023/10/11 06:11:57;;;;;;;1999.90;999.90;;;9.20;99.90;;;;;;5117167;27;20030;-76
2023/10/11 06:14:23;;;;;;;1999.90;999.90;;;9.30;99.90;;;;;;5115705;28;20032;-76
2023/10/11 06:16:57;;;;;;;1999.90;999.90;;;9.40;99.90;;;;;;5116556;27;20056;-76
2023/10/11 06:19:28;;;;;;;1999.90;999.90;;;9.40;99.90;;;;;;5116776;27;20028;-75
2023/10/11 06:21:58;;;;;;;1999.90;999.90;;;9.40;99.90;;;;;;5115691;27;20506;-76
2023/10/11 06:24:33;;;;;;;1999.90;999.90;;;9.40;99.90;;;;;;5117068;27;20043;-76
2023/10/11 06:29:45;;;;;;;1999.90;999.90;;;9.50;99.90;;;;;;5116127;27;20097;-75
2023/10/11 06:32:11;;;;;;;1999.90;999.90;;;9.60;99.90;;;;;;5116631;27;20047;-76
2023/10/11 06:34:45;;;;;;;1999.90;999.90;;;9.60;99.90;;;;;;5116920;27;20121;-75
2023/10/11 06:37:10;;;;;;;1999.90;999.90;;;9.60;99.90;;;;;;5114901;27;20517;-75
2023/10/11 06:42:57;;;;;;;1999.90;999.90;;;9.80;99.90;;;;;;5114020;27;20097;-76
2023/10/11 06:45:05;;;;;;;1999.90;999.90;;;9.80;99.90;;;;;;5113138;28;20044;-75
2023/10/11 06:47:35;;;;;;;1999.90;999.90;;;9.90;99.90;;;;;;5115958;27;20063;-76
2023/10/11 06:50:10;;;;;;;1999.90;999.90;;;10.00;99.90;;;;;;5115963;27;20028;-75
2023/10/11 06:52:46;;;;;;;1999.90;999.90;;;10.00;99.90;;;;;;5116988;27;20050;-76
2023/10/11 06:55:14;;;;;;;1999.90;999.90;;;10.10;99.90;;;;;;5117099;27;20028;-81
2023/10/11 06:57:40;;;;;;;1999.90;999.90;;;10.20;99.90;;;;;;5114819;27;20046;-75
2023/10/11 07:00:23;;;;;;;1999.90;999.90;;;10.20;99.90;;;;;;5115328;27;20039;-74
2023/10/11 07:02:52;;;;;;;1999.90;999.90;;;10.30;99.90;;;;;;5116310;27;20051;-74
2023/10/11 07:05:20;;;;;;;1999.90;999.90;;;10.40;99.90;;;;;;5098462;27;20040;-74
2023/10/11 07:07:48;;;;;;;1999.90;999.90;;;10.50;99.90;;;;;;5093889;28;20040;-74
2023/10/11 07:10:33;;;;;;;1999.90;999.90;;;10.50;99.90;;;;;;5095358;28;20058;-74
2023/10/11 07:13:03;;;;;;;1999.90;999.90;;;10.60;99.90;;;;;;5096005;28;20122;-74
2023/10/11 07:15:45;;;;;;;1999.90;999.90;;;10.70;99.90;;;;;;5095804;28;20087;-74
2023/10/11 07:18:24;;;;;;;1999.90;999.90;;;10.80;99.90;;;;;;5095503;28;20032;-74
2023/10/11 07:21:10;;;;;;;1999.90;999.90;;;10.90;99.90;;;;;;5095533;28;20122;-74
2023/10/11 07:26:48;;;;;;;1999.90;999.90;;;11.10;99.90;;;;;;5095118;28;20035;-74
2023/10/11 07:29:12;;;;;;;1999.90;999.90;;;11.20;99.90;;;;;;5094705;28;20037;-75
2023/10/11 07:31:38;;;;;;;1999.90;999.90;;;11.20;99.90;;;;;;5095288;28;20029;-75
2023/10/11 07:34:16;;;;;;;1999.90;999.90;;;11.40;99.90;;;;;;5094001;28;20045;-74
2023/10/11 07:36:43;;;;;;;1999.90;999.90;;;11.50;99.90;;;;;;5095490;28;20513;-74
2023/10/11 07:39:25;;;;;;;1999.90;999.90;;;11.60;99.90;;;;;;5095097;28;20032;-75
2023/10/11 07:42:36;;;;;;;1999.90;999.90;;;11.80;99.90;;;;;;5095778;28;20055;-75
2023/10/11 07:44:50;;;;;;;1999.90;999.90;;;11.90;99.90;;;;;;5092741;28;20417;-75
2023/10/11 07:47:16;;;;;;;1999.90;999.90;;;12.00;99.90;;;;;;5093300;28;20068;-75
2023/10/11 07:49:42;;;;;;;1999.90;999.90;;;12.20;99.90;;;;;;5093653;28;20040;-74
2023/10/11 07:52:09;;;;;;;1999.90;999.90;;;12.30;99.90;;;;;;5096282;28;20040;-78
2023/10/11 07:54:36;;;;;;;1999.90;999.90;;;12.50;99.90;;;;;;5095857;28;20024;-77
2023/10/11 07:57:04;;;;;;;1999.90;999.90;;;12.60;99.90;;;;;;5094789;28;20504;-74
2023/10/11 07:59:30;;;;;;;1999.90;999.90;;;12.80;99.90;;;;;;5094604;28;20040;-75
2023/10/11 08:01:59;;;;;;;1999.90;999.90;;;12.90;99.90;;;;;;5094872;28;20079;-74
2023/10/11 08:04:28;;;;;;;1999.90;999.90;;;13.10;99.90;;;;;;5094972;28;20020;-75
2023/10/11 08:07:02;;;;;;;1999.90;999.90;;;13.20;99.90;;;;;;5094808;28;20036;-74
2023/10/11 08:09:34;;;;;;;1999.90;999.90;;;13.30;99.90;;;;;;5094162;28;20024;-75
2023/10/11 08:11:59;;;;;;;1999.90;999.90;;;13.50;99.90;;;;;;5094878;28;20036;-73
2023/10/11 08:14:28;;;;;;;1999.90;999.90;;;13.60;99.90;;;;;;5094766;28;20109;-72
2023/10/11 08:16:59;;;;;;;1999.90;999.90;;;13.80;99.90;;;;;;5094626;28;20040;-76
2023/10/11 08:19:27;;;;;;;1999.90;999.90;;;13.90;99.90;;;;;;5094727;28;20025;-73
2023/10/11 08:21:57;;;;;;;1999.90;999.90;;;14.00;99.90;;;;;;5094538;28;20482;-73
2023/10/11 08:24:25;;;;;;;1999.90;999.90;;;14.20;99.90;;;;;;5094885;28;20781;-73
2023/10/11 08:27:05;;;;;;;1999.90;999.90;;;14.30;99.90;;;;;;5094331;28;20056;-72
2023/10/11 08:29:32;;;;;;;1999.90;999.90;;;14.50;99.90;;;;;;5094350;28;20033;-72
2023/10/11 08:31:58;;;;;;;1999.90;999.90;;;14.60;99.90;;;;;;5094735;28;20469;-73
2023/10/11 08:34:28;;;;;;;1999.90;999.90;;;14.70;99.90;;;;;;5094622;28;20083;-73
2023/10/11 08:36:56;;;;;;;1999.90;999.90;;;14.90;99.90;;;;;;5094275;28;20072;-73
2023/10/11 08:39:35;;;;;;;1999.90;999.90;;;15.10;99.90;;;;;;5094122;28;20091;-73
2023/10/11 08:42:06;;;;;;;1999.90;999.90;;;15.30;99.90;;;;;;5094606;28;20106;-73
2023/10/11 08:44:32;;;;;;;1999.90;999.90;;;15.50;99.90;;;;;;5095066;28;20020;-74
2023/10/11 08:47:04;;;;;;;1999.90;999.90;;;15.70;99.90;;;;;;5094073;28;20040;-73
2023/10/11 08:49:30;;;;;;;1999.90;999.90;;;15.80;99.90;;;;;;5093322;28;20029;-73
2023/10/11 08:52:02;;;;;;;1999.90;999.90;;;16.00;99.90;;;;;;5111664;28;20036;-73
2023/10/11 08:54:28;;;;;;;1999.90;999.90;;;16.10;99.90;;;;;;5116721;27;20039;-73
2023/10/11 08:56:57;;;;;;;1999.90;999.90;;;16.20;99.90;;;;;;5114502;27;20036;-73
2023/10/11 08:59:25;;;;;;;1999.90;999.90;;;16.30;99.90;;;;;;5113903;28;20028;-73
2023/10/11 09:01:59;;;;;;;1999.90;999.90;;;16.40;99.90;;;;;;5110717;28;20032;-73
2023/10/11 09:04:27;;;;;;;1999.90;999.90;;;16.60;99.90;;;;;;5114093;27;20024;-73
2023/10/11 09:06:57;;;;;;;1999.90;999.90;;;16.70;99.90;;;;;;5112420;28;20098;-73
2023/10/11 09:09:39;;;;;;;1999.90;999.90;;;16.90;99.90;;;;;;5113986;27;20468;-75
2023/10/11 09:12:23;;;;;;;1999.90;999.90;;;17.10;99.90;;;;;;5113827;27;20047;-72
2023/10/11 09:15:03;;;;;;;1999.90;999.90;;;17.20;99.90;;;;;;5113872;27;20035;-72
2023/10/11 09:17:38;;;;;;;1999.90;999.90;;;17.40;99.90;;;;;;5113322;27;20079;-73
2023/10/11 09:20:15;;;;;;;1999.90;999.90;;;17.50;99.90;;;;;;5111400;27;20065;-72
2023/10/11 09:22:47;;;;;;;1999.90;999.90;;;17.70;99.90;;;;;;5116411;27;20032;-73
2023/10/11 09:25:21;;;;;;;1999.90;999.90;;;17.80;99.90;;;;;;5117459;27;20074;-73
2023/10/11 09:27:51;;;;;;;1999.90;999.90;;;18.00;99.90;;;;;;5116418;27;20051;-74
2023/10/11 09:30:21;;;;;;;1999.90;999.90;;;18.10;99.90;;;;;;5116597;27;20047;-74
2023/10/11 09:32:59;;;;;;;1999.90;999.90;;;18.40;99.90;;;;;;5117105;27;20088;-74
2023/10/11 09:35:27;;;;;;;1999.90;999.90;;;18.60;99.90;;;;;;5117327;27;20039;-74
2023/10/11 09:37:57;;;;;;;1999.90;999.90;;;18.80;99.90;;;;;;5116633;27;20043;-74
2023/10/11 09:40:35;;;;;;;1999.90;999.90;;;19.00;99.90;;;;;;5117026;27;20023;-74
2023/10/11 09:43:02;;;;;;;1999.90;999.90;;;19.00;99.90;;;;;;5117303;27;20505;-74
2023/10/11 09:45:43;;;;;;;1999.90;999.90;;;19.20;99.90;;;;;;5117052;27;20397;-74
2023/10/11 09:48:12;;;;;;;1999.90;999.90;;;19.40;99.90;;;;;;5115074;27;20036;-74
2023/10/11 09:50:41;;;;;;;1999.90;999.90;;;19.60;99.90;;;;;;5116708;27;20032;-74
2023/10/11 09:53:12;;;;;;;1999.90;999.90;;;19.90;99.90;;;;;;5115080;28;20032;-74
2023/10/11 09:55:52;;;;;;;1999.90;999.90;;;20.10;99.90;;;;;;5114999;28;20076;-74
2023/10/11 09:58:42;;;;;;;1999.90;999.90;;;20.30;99.90;;;;;;5132739;22;20047;-74
2023/10/11 10:01:38;;;;;;;1999.90;999.90;;;20.40;99.90;;;;;;5074404;28;20076;-74
2023/10/11 10:04:07;;;;;;;1999.90;999.90;;;20.60;99.90;;;;;;5057734;28;20033;-74
2023/10/11 10:06:33;;;;;;;1999.90;999.90;;;20.70;99.90;;;;;;5072881;28;20501;-74
2023/10/11 10:09:16;;;;;;;1999.90;999.90;;;20.90;99.90;;;;;;5055994;28;20043;-74
2023/10/11 10:12:05;;;;;;;1999.90;999.90;;;21.00;99.90;;;;;;5056233;28;20528;-74
2023/10/11 10:14:33;;;;;;;1999.90;999.90;;;21.20;99.90;;;;;;5069861;28;20500;-83
2023/10/11 10:17:19;;;;;;;1999.90;999.90;;;21.40;99.90;;;;;;5057474;28;20048;-77
2023/10/11 10:19:48;;;;;;;1999.90;999.90;;;21.50;99.90;;;;;;5075603;28;20041;-79
2023/10/11 10:22:27;;;;;;;1999.90;999.90;;;21.60;99.90;;;;;;5075840;28;20485;-74
2023/10/11 10:24:54;;;;;;;1999.90;999.90;;;21.70;99.40;;;;;;5076070;28;20068;-75
2023/10/11 10:27:34;;;;;;;1999.90;999.90;;;21.90;99.90;;;;;;5075729;28;20107;-81
2023/10/11 10:30:04;;;;;;;1999.90;999.90;;;22.00;98.80;;;;;;5057338;28;20037;-76
2023/10/11 10:32:30;;;;;;;1999.90;999.90;;;22.10;99.00;;;;;;5069824;28;20076;-77
2023/10/11 10:35:18;;;;;;;1999.90;999.90;;;22.00;98.20;;;;;;5055464;28;20391;-75
2023/10/11 10:37:51;;;;;;;1999.90;999.90;;;22.10;98.40;;;;;;5042726;28;20160;-78
2023/10/11 10:40:25;;;;;;;1999.90;999.90;;;22.20;97.70;;;;;;5055146;28;20044;-76
2023/10/11 10:43:08;;;;;;;1999.90;999.90;;;22.40;97.80;;;;;;5065119;28;20041;-75
2023/10/11 10:45:35;;;;;;;1999.90;999.90;;;22.50;97.60;;;;;;5075531;28;20831;-75
2023/10/11 10:48:19;;;;;;;1999.90;999.90;;;22.50;96.30;;;;;;5075183;28;20163;-75
2023/10/11 10:51:01;;;;;;;1999.90;999.90;;;22.70;95.60;;;;;;5066269;28;20045;-77
2023/10/11 10:53:38;;;;;;;1999.90;999.90;;;22.80;96.40;;;;;;5055235;28;20523;-77
2023/10/11 10:56:04;;;;;;;1999.90;999.90;;;22.90;96.10;;;;;;5060955;28;20044;-80
2023/10/11 10:58:29;;;;;;;1999.90;999.90;;;23.00;95.50;;;;;;5075249;28;20048;-77
2023/10/11 11:00:59;;;;;;;1999.90;999.90;;;23.00;95.80;;;;;;5057001;28;20048;-75
2023/10/11 11:03:31;;;;;;;1999.90;999.90;;;23.10;95.50;;;;;;5068408;28;20030;-75
2023/10/11 11:05:59;;;;;;;1999.90;999.90;;;23.20;94.80;;;;;;5060710;28;20041;-75
2023/10/11 11:08:27;;;;;;;1999.90;999.90;;;23.20;94.60;;;;;;5056966;28;20033;-75
2023/10/11 11:11:19;;;;;;;1999.90;999.90;;;23.30;93.50;;;;;;5054735;28;20052;-75
2023/10/11 11:13:49;;;;;;;1999.90;999.90;;;23.50;93.80;;;;;;5057892;28;20033;-74
2023/10/11 11:16:20;;;;;;;1999.90;999.90;;;23.60;93.70;;;;;;5054679;28;20108;-74
2023/10/11 11:18:47;;;;;;;1999.90;999.90;;;23.70;94.20;;;;;;5036777;28;20410;-75
2023/10/11 11:21:22;;;;;;;1999.90;999.90;;;24.00;93.40;;;;;;5056737;28;20495;-74
2023/10/11 11:23:51;;;;;;;1999.90;999.90;;;24.10;93.00;;;;;;5054760;28;20033;-75
2023/10/11 11:26:22;;;;;;;1999.90;999.90;;;24.20;93.20;;;;;;5054330;28;20477;-75
2023/10/11 11:28:49;;;;;;;1999.90;999.90;;;24.20;92.50;;;;;;5054703;28;20034;-75
2023/10/11 11:31:30;;;;;;;1999.90;999.90;;;24.30;92.20;;;;;;5066083;28;20534;-75
2023/10/11 11:34:12;;;;;;;1999.90;999.90;;;24.40;91.80;;;;;;5056167;28;20069;-75
2023/10/11 11:36:40;;;;;;;1999.90;999.90;;;24.50;91.70;;;;;;5037310;28;20044;-77
2023/10/11 11:42:18;;;;;;;1999.90;999.90;;;24.60;92.00;;;;;;5049182;28;20049;-76
2023/10/11 11:44:47;;;;;;;1999.90;999.90;;;24.70;91.30;;;;;;5055375;28;20036;-76
2023/10/11 11:47:20;;;;;;;1999.90;999.90;;;24.70;91.50;;;;;;5055968;28;20087;-76
2023/10/11 11:49:47;;;;;;;1999.90;999.90;;;24.90;91.50;;;;;;5073931;28;20025;-76
2023/10/11 11:52:16;;;;;;;1999.90;999.90;;;24.90;90.90;;;;;;5055811;28;20049;-76
2023/10/11 11:54:43;;;;;;;1999.90;999.90;;;25.00;89.80;;;;;;5072594;28;20037;-76
2023/10/11 11:57:09;;;;;;;1999.90;999.90;;;25.10;89.20;;;;;;5057770;28;20092;-76
2023/10/11 11:59:35;;;;;;;1999.90;999.90;;;25.20;87.60;;;;;;5049688;28;20037;-76
2023/10/11 12:02:01;;;;;;;1999.90;999.90;;;25.40;87.90;;;;;;5067764;28;20043;-77
2023/10/11 12:04:29;;;;;;;1999.90;999.90;;;25.50;87.10;;;;;;5054149;28;20022;-76
2023/10/11 12:07:02;;;;;;;1999.90;999.90;;;25.60;86.80;;;;;;5035844;28;20111;-77
2023/10/11 12:09:34;;;;;;;1999.90;999.90;;;25.60;84.70;;;;;;5047056;28;20059;-76
2023/10/11 12:12:04;;;;;;;1999.90;999.90;;;25.70;85.70;;;;;;5059013;28;20029;-77
2023/10/11 12:14:38;;;;;;;1999.90;999.90;;;25.80;85.60;;;;;;5052861;28;20037;-76
2023/10/11 12:17:10;;;;;;;1999.90;999.90;;;25.90;86.00;;;;;;5068719;28;20740;-77
2023/10/11 12:19:37;;;;;;;1999.90;999.90;;;25.90;86.10;;;;;;5054099;28;20101;-77
2023/10/11 12:22:04;;;;;;;1999.90;999.90;;;26.00;86.70;;;;;;5036135;28;20042;-76
2023/10/11 12:24:29;;;;;;;1999.90;999.90;;;26.10;85.10;;;;;;5054423;28;20022;-76
2023/10/11 12:26:58;;;;;;;1999.90;999.90;;;26.00;83.70;;;;;;5037071;28;20037;-76
2023/10/11 12:29:24;;;;;;;1999.90;999.90;;;25.90;83.80;;;;;;5054032;28;20031;-77
2023/10/11 12:31:49;;;;;;;1999.90;999.90;;;26.00;85.30;;;;;;5053810;28;20072;-76
2023/10/11 12:34:16;;;;;;;1999.90;999.90;;;26.10;83.90;;;;;;5054331;28;20322;-77
2023/10/11 12:36:42;;;;;;;1999.90;999.90;;;26.10;83.70;;;;;;5035747;28;20041;-77
2023/10/11 12:39:20;;;;;;;1999.90;999.90;;;26.20;84.40;;;;;;5054004;28;20037;-76
2023/10/11 12:41:48;;;;;;;1999.90;999.90;;;26.30;84.30;;;;;;5054387;28;20037;-77
2023/10/11 12:44:15;;;;;;;1999.90;999.90;;;26.30;83.60;;;;;;5036160;28;20025;-78
2023/10/11 12:46:40;;;;;;;1999.90;999.90;;;26.40;82.50;;;;;;5054008;28;20048;-78
2023/10/11 12:49:12;;;;;;;1999.90;999.90;;;26.50;82.30;;;;;;5053865;28;20034;-77
2023/10/11 12:51:42;;;;;;;1999.90;999.90;;;26.30;82.10;;;;;;5054561;28;20033;-77
2023/10/11 12:54:10;;;;;;;1999.90;999.90;;;26.30;82.80;;;;;;5054043;28;20033;-76
2023/10/11 12:56:36;;;;;;;1999.90;999.90;;;26.20;81.30;;;;;;5071112;28;20033;-76
2023/10/11 12:59:02;;;;;;;1999.90;999.90;;;26.10;81.60;;;;;;5058891;28;20029;-85
2023/10/11 13:01:38;;;;;;;1999.90;999.90;;;26.00;82.80;;;;;;5059467;28;20817;-78
2023/10/11 13:04:09;;;;;;;1999.90;999.90;;;26.10;83.40;;;;;;5059731;28;20547;-78
2023/10/11 13:06:37;;;;;;;1999.90;999.90;;;26.30;82.50;;;;;;5060038;28;20037;-83
2023/10/11 13:09:14;;;;;;;1999.90;999.90;;;26.20;82.40;;;;;;5060114;28;20033;-79
2023/10/11 13:11:44;;;;;;;1999.90;999.90;;;26.10;82.80;;;;;;5079374;28;20040;-78
2023/10/11 13:14:19;;;;;;;1999.90;999.90;;;26.10;82.50;;;;;;5060847;28;20106;-82